Time;durP1;ratioP1;P1;durP2;ratioP2;P2;SDS_P1;SDS_P2;PMS_P1;PMS_P2;Temp;Humidity;BMP_temperature;BMP_pressure;BME280_temperature;BME280_humidity;BME280_pressure;Samples;Min_cycle;Max_cycle;Signal;HPM_P1;HPM_P2
2024/03/11 00:02:25;;;;;;;5.75;5.07;;;19.80;64.50;;;;;;4979466;28;20575;-79
2024/03/11 00:04:50;;;;;;;5.38;4.93;;;19.70;64.40;;;;;;4983830;28;20113;-79
2024/03/11 00:07:16;;;;;;;5.80;5.20;;;19.80;64.60;;;;;;5002517;28;20042;-79
2024/03/11 00:09:45;;;;;;;5.35;4.90;;;19.70;64.50;;;;;;4986417;28;20062;-79
2024/03/11 00:12:11;;;;;;;5.68;5.18;;;19.70;64.40;;;;;;4987065;28;20058;-79
2024/03/11 00:14:39;;;;;;;5.25;4.82;;;19.70;64.50;;;;;;4969813;28;20125;-79
2024/03/11 00:17:06;;;;;;;5.47;4.97;;;19.70;64.50;;;;;;4983300;28;20152;-79
2024/03/11 00:19:31;;;;;;;4.38;4.07;;;19.70;64.50;;;;;;4986962;28;20042;-80
2024/03/11 00:21:58;;;;;;;5.22;4.82;;;19.60;64.60;;;;;;5001404;28;20030;-79
2024/03/11 00:24:23;;;;;;;5.10;4.70;;;19.60;64.50;;;;;;5002805;28;20042;-79
2024/03/11 00:26:49;;;;;;;4.72;4.43;;;19.60;64.70;;;;;;4985098;28;20042;-80
2024/03/11 00:29:16;;;;;;;5.28;4.88;;;19.50;64.50;;;;;;4984389;28;20125;-79
2024/03/11 00:31:42;;;;;;;5.03;4.63;;;19.50;64.40;;;;;;4968209;28;20050;-80
2024/03/11 00:34:08;;;;;;;7.78;4.47;;;19.50;64.40;;;;;;4968318;28;20057;-80
2024/03/11 00:36:34;;;;;;;4.63;4.22;;;19.50;64.40;;;;;;4985066;28;20891;-80
2024/03/11 00:39:03;;;;;;;4.93;4.53;;;19.40;64.60;;;;;;4968807;28;20503;-80
2024/03/11 00:41:28;;;;;;;5.25;4.90;;;19.50;64.60;;;;;;5000817;28;20041;-79
2024/03/11 00:43:55;;;;;;;4.35;3.95;;;19.40;64.70;;;;;;4985360;28;20046;-80
2024/03/11 00:46:20;;;;;;;4.25;3.90;;;19.40;64.70;;;;;;4998093;28;20050;-79
2024/03/11 00:48:47;;;;;;;5.05;4.55;;;19.40;64.70;;;;;;4968033;28;20045;-79
2024/03/11 00:51:12;;;;;;;4.75;4.30;;;19.40;64.60;;;;;;4985036;28;20105;-80
2024/03/11 00:53:38;;;;;;;3.80;3.50;;;19.30;64.70;;;;;;5002370;28;20030;-80
2024/03/11 00:56:06;;;;;;;3.90;3.60;;;19.30;64.70;;;;;;4967511;28;20065;-79
2024/03/11 00:58:34;;;;;;;4.40;4.10;;;19.30;64.60;;;;;;4968067;28;20147;-79
2024/03/11 01:01:01;;;;;;;4.07;3.78;;;19.30;64.80;;;;;;4984530;28;20515;-79
2024/03/11 01:03:29;;;;;;;4.13;3.83;;;19.30;64.80;;;;;;4981999;28;20042;-79
2024/03/11 01:05:56;;;;;;;4.47;4.07;;;19.30;64.60;;;;;;4986474;28;20073;-80
2024/03/11 01:08:22;;;;;;;3.85;3.60;;;19.20;64.70;;;;;;4985579;28;20100;-80
2024/03/11 01:10:48;;;;;;;3.80;3.60;;;19.20;64.50;;;;;;4984912;28;20042;-80
2024/03/11 01:13:14;;;;;;;3.65;3.35;;;19.20;64.80;;;;;;4985438;28;20051;-80
2024/03/11 01:15:39;;;;;;;4.07;3.78;;;19.20;64.50;;;;;;4985808;28;20049;-80
2024/03/11 01:18:05;;;;;;;4.15;3.85;;;19.20;64.30;;;;;;4985639;28;20125;-79
2024/03/11 01:20:30;;;;;;;3.67;3.38;;;19.20;64.60;;;;;;4970038;28;20508;-79
2024/03/11 01:22:56;;;;;;;3.35;3.15;;;19.10;64.60;;;;;;4966593;28;20081;-79
2024/03/11 01:25:21;;;;;;;3.80;3.50;;;19.10;64.60;;;;;;4984762;28;20046;-79
2024/03/11 01:27:47;;;;;;;4.43;3.75;;;19.10;64.60;;;;;;4981297;28;20121;-80
2024/03/11 01:30:14;;;;;;;3.42;3.22;;;19.10;64.60;;;;;;4968194;28;20547;-80
2024/03/11 01:32:44;;;;;;;3.40;3.15;;;19.10;64.80;;;;;;4986975;28;20042;-80
2024/03/11 01:35:11;;;;;;;3.28;3.08;;;19.00;64.40;;;;;;4985408;28;20053;-80
2024/03/11 01:37:36;;;;;;;3.58;3.38;;;19.00;63.80;;;;;;4984379;28;20039;-80
2024/03/11 01:40:03;;;;;;;3.63;3.42;;;19.00;63.90;;;;;;5000496;28;20042;-80
2024/03/11 01:42:29;;;;;;;3.40;3.20;;;19.00;64.00;;;;;;4970555;28;20054;-80
2024/03/11 01:44:54;;;;;;;3.80;3.50;;;19.00;64.00;;;;;;4985723;28;20054;-80
2024/03/11 01:47:21;;;;;;;3.53;3.33;;;19.00;64.50;;;;;;4986913;28;20053;-80
2024/03/11 01:49:52;;;;;;;3.22;3.03;;;19.00;64.40;;;;;;4987101;28;20069;-80
2024/03/11 01:52:20;;;;;;;3.40;3.20;;;19.00;65.30;;;;;;4987930;28;20512;-80
2024/03/11 01:54:45;;;;;;;3.80;3.50;;;18.90;63.80;;;;;;4972292;28;20070;-80
2024/03/11 01:57:11;;;;;;;3.47;3.17;;;18.90;63.80;;;;;;4969109;28;20074;-80
2024/03/11 01:59:37;;;;;;;3.05;2.85;;;18.90;63.80;;;;;;4972600;28;20415;-79
2024/03/11 02:02:07;;;;;;;3.00;2.80;;;18.90;64.60;;;;;;4985020;28;20043;-80
2024/03/11 02:04:34;;;;;;;2.80;2.60;;;18.90;64.10;;;;;;4987101;28;20042;-80
2024/03/11 02:06:59;;;;;;;3.50;3.30;;;18.80;64.10;;;;;;4969783;28;20048;-79
2024/03/11 02:09:25;;;;;;;2.97;2.78;;;18.90;64.10;;;;;;4985481;28;20034;-79
2024/03/11 02:11:51;;;;;;;2.85;2.65;;;18.80;64.10;;;;;;4989916;28;20038;-80
2024/03/11 02:14:16;;;;;;;3.30;3.10;;;18.80;64.20;;;;;;4988180;28;20057;-80
2024/03/11 02:16:42;;;;;;;2.90;2.70;;;18.80;64.40;;;;;;4987883;28;20082;-80
2024/03/11 02:19:12;;;;;;;3.35;3.13;;;18.80;63.80;;;;;;5000908;28;20038;-81
2024/03/11 02:21:46;;;;;;;2.50;2.40;;;18.80;64.10;;;;;;5002472;28;20121;-80
2024/03/11 02:24:15;;;;;;;3.17;2.88;;;18.80;64.00;;;;;;4987669;28;20046;-80
2024/03/11 02:26:48;;;;;;;2.65;2.47;;;18.80;63.60;;;;;;4989492;28;20415;-79
2024/03/11 02:29:17;;;;;;;2.63;2.53;;;18.80;64.30;;;;;;4956098;28;20046;-80
2024/03/11 02:31:46;;;;;;;3.72;3.40;;;18.70;63.70;;;;;;4987373;28;20050;-80
2024/03/11 02:34:12;;;;;;;2.70;2.60;;;18.80;63.60;;;;;;4986083;28;20039;-80
2024/03/11 02:36:42;;;;;;;2.67;2.50;;;18.70;63.80;;;;;;4954919;28;20052;-79
2024/03/11 02:39:07;;;;;;;2.80;2.60;;;18.70;63.70;;;;;;4984477;28;20077;-81
2024/03/11 02:41:36;;;;;;;2.90;2.70;;;18.70;64.00;;;;;;4987793;28;20381;-81
2024/03/11 02:44:03;;;;;;;2.70;2.50;;;18.70;63.80;;;;;;4998755;28;20420;-80
2024/03/11 02:46:29;;;;;;;2.80;2.60;;;18.70;63.70;;;;;;4987574;28;20069;-80
2024/03/11 02:48:56;;;;;;;2.70;2.50;;;18.70;63.90;;;;;;4999215;28;20042;-80
2024/03/11 02:51:22;;;;;;;2.65;2.55;;;18.70;63.50;;;;;;4982540;28;20034;-80
2024/03/11 02:53:48;;;;;;;2.22;2.13;;;18.60;63.70;;;;;;4986946;28;20050;-80
2024/03/11 02:56:14;;;;;;;2.55;2.35;;;18.60;63.70;;;;;;4988275;28;20046;-79
2024/03/11 02:58:40;;;;;;;2.60;2.50;;;18.60;63.50;;;;;;4982089;28;20034;-79
2024/03/11 03:01:06;;;;;;;2.50;2.30;;;18.60;63.50;;;;;;4985425;28;20108;-80
2024/03/11 03:03:32;;;;;;;2.30;2.20;;;18.60;63.40;;;;;;4986410;28;20046;-80
2024/03/11 03:05:59;;;;;;;2.45;2.25;;;18.60;63.40;;;;;;4967909;28;20443;-80
2024/03/11 03:08:25;;;;;;;2.33;2.22;;;18.60;63.40;;;;;;5001344;28;20151;-80
2024/03/11 03:10:51;;;;;;;2.08;1.98;;;18.60;63.40;;;;;;4969621;28;20072;-80
2024/03/11 03:13:17;;;;;;;6.63;2.30;;;18.50;63.40;;;;;;4985883;28;20035;-79
2024/03/11 03:15:42;;;;;;;2.17;2.08;;;18.60;63.50;;;;;;4968212;28;20112;-79
2024/03/11 03:18:08;;;;;;;2.42;2.33;;;18.50;63.60;;;;;;4985872;28;20133;-79
2024/03/11 03:20:35;;;;;;;2.50;2.40;;;18.60;63.70;;;;;;4988023;28;20596;-79
2024/03/11 03:23:01;;;;;;;2.30;2.20;;;18.50;63.60;;;;;;4969843;28;20042;-80
2024/03/11 03:25:32;;;;;;;2.22;2.13;;;18.50;63.80;;;;;;4987140;28;20108;-80
2024/03/11 03:28:05;;;;;;;2.00;1.90;;;18.50;63.50;;;;;;4970523;28;20047;-80
2024/03/11 03:30:32;;;;;;;2.42;2.30;;;18.50;63.60;;;;;;4980495;28;20125;-80
2024/03/11 03:32:58;;;;;;;1.77;1.67;;;18.50;63.60;;;;;;5001580;28;20138;-80
2024/03/11 03:35:24;;;;;;;2.10;2.00;;;18.50;63.60;;;;;;4970190;28;20463;-80
2024/03/11 03:37:54;;;;;;;2.35;2.25;;;18.40;63.40;;;;;;4969970;28;21039;-80
2024/03/11 03:40:22;;;;;;;2.03;1.92;;;18.40;63.40;;;;;;4970711;28;20124;-80
2024/03/11 03:42:48;;;;;;;2.00;1.90;;;18.50;63.60;;;;;;4986190;28;20039;-80
2024/03/11 03:45:14;;;;;;;2.13;1.98;;;18.40;63.60;;;;;;4970060;28;20091;-80
2024/03/11 03:47:41;;;;;;;2.20;2.10;;;18.40;63.60;;;;;;4988624;28;20096;-80
2024/03/11 03:50:10;;;;;;;2.85;2.05;;;18.40;63.40;;;;;;4986728;28;20042;-80
2024/03/11 03:52:38;;;;;;;2.00;1.90;;;18.40;63.50;;;;;;4970652;28;20049;-80
2024/03/11 03:55:04;;;;;;;2.15;2.05;;;18.40;63.40;;;;;;4986990;28;20534;-80
2024/03/11 03:57:29;;;;;;;2.00;1.90;;;18.40;63.70;;;;;;4985543;28;20054;-79
2024/03/11 03:59:55;;;;;;;1.80;1.70;;;18.40;63.50;;;;;;4985574;28;20448;-79
2024/03/11 04:02:21;;;;;;;2.28;1.90;;;18.40;63.60;;;;;;4986687;28;20570;-79
2024/03/11 04:04:47;;;;;;;1.80;1.70;;;18.30;63.80;;;;;;4969135;28;20042;-79
2024/03/11 04:07:13;;;;;;;1.77;1.67;;;18.30;63.40;;;;;;4984890;28;20096;-79
2024/03/11 04:09:39;;;;;;;1.70;1.60;;;18.30;63.40;;;;;;4985583;28;20516;-79
2024/03/11 04:12:06;;;;;;;1.65;1.55;;;18.30;63.40;;;;;;4985231;28;20050;-79
2024/03/11 04:14:32;;;;;;;2.05;1.95;;;18.30;63.50;;;;;;4985806;28;20051;-79
2024/03/11 04:16:58;;;;;;;1.60;1.50;;;18.30;63.60;;;;;;4984793;28;20042;-79
2024/03/11 04:19:25;;;;;;;1.70;1.60;;;18.30;63.70;;;;;;4983545;28;20031;-80
2024/03/11 04:21:53;;;;;;;1.60;1.50;;;18.30;63.40;;;;;;4969183;28;20046;-79
2024/03/11 04:24:20;;;;;;;1.42;1.33;;;18.20;63.40;;;;;;4982576;28;20439;-79
2024/03/11 04:26:46;;;;;;;1.55;1.45;;;18.30;63.60;;;;;;4986873;28;20046;-79
2024/03/11 04:29:11;;;;;;;2.00;1.90;;;18.30;63.60;;;;;;4984407;28;20057;-79
2024/03/11 04:31:38;;;;;;;1.65;1.55;;;18.30;63.60;;;;;;4985219;28;20058;-80
2024/03/11 04:34:05;;;;;;;1.80;1.70;;;18.30;63.50;;;;;;4951872;28;20034;-80
2024/03/11 04:36:31;;;;;;;1.70;1.60;;;18.20;63.50;;;;;;4984831;28;20050;-80
2024/03/11 04:38:56;;;;;;;1.52;1.42;;;18.20;63.60;;;;;;4985226;28;20050;-80
2024/03/11 04:41:22;;;;;;;2.25;2.05;;;18.20;63.50;;;;;;4968982;28;20042;-80
2024/03/11 04:43:47;;;;;;;1.55;1.55;;;18.20;63.60;;;;;;4968169;28;20052;-79
2024/03/11 04:46:13;;;;;;;1.67;1.58;;;18.20;63.50;;;;;;4966972;28;20141;-79
2024/03/11 04:48:39;;;;;;;1.70;1.60;;;18.20;63.50;;;;;;4985137;28;20046;-80
2024/03/11 04:51:06;;;;;;;1.90;1.80;;;18.20;63.50;;;;;;5000813;28;20050;-79
2024/03/11 04:53:32;;;;;;;1.70;1.60;;;18.10;63.50;;;;;;4982004;28;20074;-80
2024/03/11 04:55:58;;;;;;;1.52;1.42;;;18.10;63.40;;;;;;4983389;28;20244;-80
2024/03/11 04:58:24;;;;;;;1.63;1.52;;;18.10;63.40;;;;;;4983354;28;20049;-80
2024/03/11 05:00:50;;;;;;;1.45;1.35;;;18.20;63.70;;;;;;4969618;28;20097;-80
2024/03/11 05:03:17;;;;;;;1.38;1.30;;;18.20;63.50;;;;;;4985354;28;20466;-79
2024/03/11 05:05:43;;;;;;;1.60;1.50;;;18.10;63.40;;;;;;4993799;28;20101;-80
2024/03/11 05:08:09;;;;;;;1.50;1.50;;;18.10;63.50;;;;;;4968193;28;20042;-79
2024/03/11 05:10:35;;;;;;;1.88;1.77;;;18.10;63.50;;;;;;4952662;28;20121;-79
2024/03/11 05:13:03;;;;;;;1.38;1.33;;;18.10;63.50;;;;;;4984768;28;20534;-79
2024/03/11 05:15:29;;;;;;;1.50;1.40;;;18.10;63.50;;;;;;4998258;28;20121;-79
2024/03/11 05:17:55;;;;;;;1.75;1.65;;;18.10;63.60;;;;;;4985250;28;20117;-80
2024/03/11 05:20:20;;;;;;;1.58;1.48;;;18.10;63.50;;;;;;4997707;28;20050;-80
2024/03/11 05:22:49;;;;;;;1.60;1.50;;;18.10;63.80;;;;;;4985076;28;20050;-80
2024/03/11 05:25:15;;;;;;;1.67;1.58;;;18.10;63.50;;;;;;4967498;28;20034;-78
2024/03/11 05:27:41;;;;;;;1.30;1.25;;;18.00;63.40;;;;;;4985490;28;20440;-78
2024/03/11 05:30:07;;;;;;;1.70;1.60;;;18.10;63.50;;;;;;4985111;28;20039;-78
2024/03/11 05:32:33;;;;;;;1.45;1.40;;;18.00;63.50;;;;;;4984846;28;20431;-78
2024/03/11 05:34:59;;;;;;;1.13;1.13;;;18.10;64.20;;;;;;4985074;28;20053;-78
2024/03/11 05:37:26;;;;;;;1.30;1.30;;;18.00;63.50;;;;;;4950467;28;20054;-78
2024/03/11 05:39:55;;;;;;;1.60;1.50;;;18.00;63.60;;;;;;4965201;28;20074;-78
2024/03/11 05:42:24;;;;;;;1.42;1.33;;;18.00;63.70;;;;;;4999205;28;20050;-79
2024/03/11 05:44:50;;;;;;;1.55;1.45;;;18.00;63.50;;;;;;4994586;28;20047;-79
2024/03/11 05:47:15;;;;;;;1.25;1.25;;;18.00;63.60;;;;;;4968419;28;20046;-79
2024/03/11 05:49:41;;;;;;;1.63;1.52;;;18.00;63.60;;;;;;4983138;28;20073;-79
2024/03/11 05:52:09;;;;;;;1.15;1.00;;;18.00;63.60;;;;;;4967780;28;20046;-80
2024/03/11 05:54:35;;;;;;;1.13;1.13;;;18.00;63.50;;;;;;4951840;28;20050;-80
2024/03/11 05:57:04;;;;;;;1.35;1.25;;;18.00;63.60;;;;;;4968575;28;20522;-80
2024/03/11 05:59:31;;;;;;;1.40;1.30;;;18.00;63.60;;;;;;4984826;28;20057;-80
2024/03/11 06:01:59;;;;;;;1.27;1.17;;;18.00;64.00;;;;;;4982485;28;20497;-80
2024/03/11 06:04:25;;;;;;;1.40;1.30;;;18.00;64.20;;;;;;4966050;28;20081;-80
2024/03/11 06:06:52;;;;;;;1.40;1.30;;;17.90;63.70;;;;;;4966140;28;20084;-80
2024/03/11 06:09:17;;;;;;;1.20;1.10;;;18.00;63.80;;;;;;4979348;28;20046;-80
2024/03/11 06:11:49;;;;;;;1.20;1.20;;;17.90;63.70;;;;;;4965399;28;20042;-80
2024/03/11 06:14:15;;;;;;;1.15;1.15;;;17.90;63.80;;;;;;4950363;28;20050;-80
2024/03/11 06:16:44;;;;;;;1.40;1.30;;;18.00;63.80;;;;;;4985401;28;20054;-80
2024/03/11 06:19:11;;;;;;;1.23;1.13;;;18.00;63.70;;;;;;4967286;28;20039;-80
2024/03/11 06:21:37;;;;;;;1.50;1.40;;;17.90;63.70;;;;;;4978953;28;20062;-79
2024/03/11 06:24:05;;;;;;;1.13;1.13;;;17.90;63.80;;;;;;4984491;28;20065;-79
2024/03/11 06:26:32;;;;;;;1.15;1.15;;;17.90;64.10;;;;;;4968827;28;20041;-79
2024/03/11 06:29:00;;;;;;;1.23;1.20;;;17.90;63.80;;;;;;4987637;28;20050;-79
2024/03/11 06:31:25;;;;;;;1.38;1.30;;;17.90;63.80;;;;;;4985970;28;20134;-79
2024/03/11 06:33:52;;;;;;;1.15;1.10;;;17.90;64.00;;;;;;4988308;28;20118;-80
2024/03/11 06:36:18;;;;;;;0.80;0.80;;;17.90;63.60;;;;;;4980681;28;20118;-79
2024/03/11 06:38:44;;;;;;;1.10;1.10;;;17.90;63.60;;;;;;5004261;28;20124;-80
2024/03/11 06:41:11;;;;;;;1.33;1.20;;;17.90;63.60;;;;;;4985919;28;20044;-79
2024/03/11 06:43:38;;;;;;;1.27;1.27;;;17.90;63.60;;;;;;5001651;28;20133;-80
2024/03/11 06:46:03;;;;;;;1.60;1.50;;;17.90;64.00;;;;;;4969097;28;20073;-80
2024/03/11 06:48:29;;;;;;;2.40;1.05;;;18.00;64.10;;;;;;4970017;28;20474;-79
2024/03/11 06:50:55;;;;;;;1.40;1.10;;;18.00;64.10;;;;;;4965371;28;20051;-81
2024/03/11 06:53:20;;;;;;;1.27;1.17;;;18.00;64.20;;;;;;4961939;28;20542;-81
2024/03/11 06:55:46;;;;;;;1.65;1.55;;;17.90;64.50;;;;;;4947261;28;20053;-81
2024/03/11 06:58:11;;;;;;;1.58;0.93;;;17.90;64.50;;;;;;4963466;28;20587;-81
2024/03/11 07:00:37;;;;;;;1.60;1.50;;;17.90;64.10;;;;;;4963092;28;20984;-80
2024/03/11 07:03:03;;;;;;;1.52;1.25;;;17.90;64.30;;;;;;4964275;28;20069;-80
2024/03/11 07:05:28;;;;;;;1.88;1.35;;;17.90;64.40;;;;;;4968638;28;21049;-81
2024/03/11 07:07:55;;;;;;;1.05;1.05;;;17.90;64.60;;;;;;4967781;28;20121;-80
2024/03/11 07:10:21;;;;;;;1.20;1.10;;;18.00;64.50;;;;;;4970341;28;20050;-79
2024/03/11 07:12:47;;;;;;;1.45;1.35;;;18.00;64.50;;;;;;4969775;28;20049;-82
2024/03/11 07:15:12;;;;;;;1.52;1.42;;;18.00;65.10;;;;;;4961330;28;20524;-79
2024/03/11 07:17:38;;;;;;;1.70;1.20;;;18.10;65.40;;;;;;4962421;28;20642;-79
2024/03/11 07:20:08;;;;;;;1.10;1.10;;;18.00;64.90;;;;;;4963151;28;20054;-79
2024/03/11 07:22:38;;;;;;;1.63;1.50;;;18.00;64.80;;;;;;4977829;28;20720;-79
2024/03/11 07:25:11;;;;;;;0.93;0.93;;;18.00;65.10;;;;;;4946262;28;20057;-85
2024/03/11 07:27:39;;;;;;;1.73;1.27;;;18.00;65.70;;;;;;4961530;28;20601;-81
2024/03/11 07:30:09;;;;;;;1.70;1.40;;;18.00;65.40;;;;;;4990742;28;20038;-80
2024/03/11 07:32:35;;;;;;;2.13;1.42;;;18.00;65.80;;;;;;4989029;28;20440;-82
2024/03/11 07:35:01;;;;;;;2.65;1.20;;;18.00;67.40;;;;;;4985521;28;20085;-79
2024/03/11 07:37:27;;;;;;;2.13;1.50;;;18.00;68.10;;;;;;4988042;28;20548;-79
2024/03/11 07:39:52;;;;;;;2.17;1.48;;;18.00;69.00;;;;;;4989638;28;20551;-80
2024/03/11 07:42:24;;;;;;;1.75;1.42;;;18.00;69.20;;;;;;5003969;28;20046;-80
2024/03/11 07:44:49;;;;;;;3.13;1.20;;;18.00;69.40;;;;;;4976567;28;20057;-80
2024/03/11 07:47:15;;;;;;;3.00;1.50;;;18.00;69.50;;;;;;4989944;28;20129;-80
2024/03/11 07:49:41;;;;;;;1.65;1.45;;;18.00;69.50;;;;;;4987978;28;20078;-80
2024/03/11 07:52:06;;;;;;;2.55;1.10;;;18.00;69.80;;;;;;4987416;28;20045;-82
2024/03/11 07:54:32;;;;;;;2.20;1.10;;;18.00;70.30;;;;;;4986345;28;20408;-81
2024/03/11 07:56:58;;;;;;;1.60;1.30;;;18.00;69.40;;;;;;4988592;28;20061;-81
2024/03/11 07:59:24;;;;;;;1.85;1.15;;;18.10;69.20;;;;;;4988426;28;20046;-81
2024/03/11 08:01:50;;;;;;;1.85;1.40;;;18.10;69.20;;;;;;5002391;28;20060;-80
2024/03/11 08:04:16;;;;;;;2.53;1.10;;;18.00;69.20;;;;;;4985773;28;20053;-81
2024/03/11 08:06:41;;;;;;;1.45;1.10;;;18.10;68.80;;;;;;4985699;28;20415;-80
2024/03/11 08:09:09;;;;;;;1.92;1.20;;;18.10;69.40;;;;;;5002698;28;20042;-81
2024/03/11 08:11:35;;;;;;;1.20;1.10;;;18.10;69.00;;;;;;4988713;28;20046;-81
2024/03/11 08:14:04;;;;;;;1.50;1.40;;;18.10;68.90;;;;;;4970886;28;20042;-81
2024/03/11 08:16:30;;;;;;;1.20;0.90;;;18.10;69.00;;;;;;4985123;28;20121;-80
2024/03/11 08:18:55;;;;;;;1.17;1.10;;;18.10;69.10;;;;;;4969321;28;20049;-82
2024/03/11 08:21:21;;;;;;;2.35;1.23;;;18.10;68.90;;;;;;5002534;28;20093;-81
2024/03/11 08:23:46;;;;;;;1.85;1.35;;;18.10;70.00;;;;;;4989775;28;20415;-81
2024/03/11 08:26:13;;;;;;;1.02;1.00;;;18.10;69.50;;;;;;4987786;28;20085;-81
2024/03/11 08:28:39;;;;;;;1.40;1.30;;;18.10;69.00;;;;;;4986437;28;20038;-82
2024/03/11 08:31:08;;;;;;;1.63;1.30;;;18.10;69.20;;;;;;4985717;28;20539;-82
2024/03/11 08:33:37;;;;;;;1.00;1.00;;;18.10;69.20;;;;;;4984680;28;20571;-81
2024/03/11 08:36:04;;;;;;;0.98;0.98;;;18.10;68.70;;;;;;4968975;28;20057;-83
2024/03/11 08:38:33;;;;;;;0.95;0.85;;;18.10;68.90;;;;;;4988042;28;20459;-83
2024/03/11 08:40:59;;;;;;;1.13;1.02;;;18.10;69.00;;;;;;4988355;28;20041;-83
2024/03/11 08:43:26;;;;;;;1.00;1.00;;;18.10;68.80;;;;;;4967376;28;20085;-81
2024/03/11 08:45:52;;;;;;;1.55;0.90;;;18.10;68.70;;;;;;4988258;28;20042;-82
2024/03/11 08:48:17;;;;;;;1.05;0.95;;;18.10;68.90;;;;;;4986079;28;20105;-82
2024/03/11 08:50:43;;;;;;;1.52;1.23;;;18.10;68.90;;;;;;5001159;28;20072;-82
2024/03/11 08:53:08;;;;;;;1.60;0.85;;;18.10;68.70;;;;;;4986781;28;20566;-82
2024/03/11 08:55:34;;;;;;;1.30;1.00;;;18.20;68.80;;;;;;4986033;28;20043;-83
2024/03/11 08:58:01;;;;;;;0.80;0.80;;;18.20;68.60;;;;;;4986138;28;20133;-83
2024/03/11 09:00:30;;;;;;;1.08;0.98;;;18.20;68.40;;;;;;4984407;28;20470;-81
2024/03/11 09:02:56;;;;;;;0.90;0.90;;;18.30;68.50;;;;;;4965129;28;20109;-82
2024/03/11 09:05:22;;;;;;;2.42;1.00;;;18.30;68.00;;;;;;4968619;28;20050;-82
2024/03/11 09:07:50;;;;;;;2.45;1.00;;;18.40;68.00;;;;;;4985570;28;20061;-82
2024/03/11 09:10:17;;;;;;;1.40;1.10;;;18.40;67.80;;;;;;4971140;28;20054;-83
2024/03/11 09:12:42;;;;;;;1.08;0.85;;;18.40;67.50;;;;;;4984576;28;20491;-82
2024/03/11 09:15:23;;;;;;;1.40;1.10;;;18.50;67.60;;;;;;4984506;28;20049;-81
2024/03/11 09:17:50;;;;;;;1.20;1.10;;;18.50;67.60;;;;;;4987504;28;20046;-82
2024/03/11 09:20:16;;;;;;;3.20;0.82;;;18.50;67.50;;;;;;5002437;28;20046;-84
2024/03/11 09:23:01;;;;;;;0.80;0.80;;;18.50;67.70;;;;;;4986165;28;20069;-81
2024/03/11 09:25:27;;;;;;;1.70;1.10;;;18.50;67.40;;;;;;4988094;28;20054;-81
2024/03/11 09:27:54;;;;;;;0.80;0.80;;;18.50;67.50;;;;;;4985841;28;20096;-83
2024/03/11 09:30:19;;;;;;;0.73;0.70;;;18.50;67.50;;;;;;4976034;28;20120;-83
2024/03/11 09:32:49;;;;;;;0.70;0.70;;;18.60;67.60;;;;;;4985306;28;20476;-83
2024/03/11 09:35:16;;;;;;;0.90;0.90;;;18.60;67.60;;;;;;4984867;28;20035;-81
2024/03/11 09:37:46;;;;;;;3.13;0.90;;;18.60;67.50;;;;;;4964705;28;20133;-83
2024/03/11 09:40:16;;;;;;;1.30;1.20;;;18.60;67.50;;;;;;4969592;28;20053;-82
2024/03/11 09:42:48;;;;;;;1.10;0.90;;;18.70;67.40;;;;;;4968716;28;20117;-83
2024/03/11 09:45:18;;;;;;;1.95;0.63;;;18.70;67.20;;;;;;4987371;28;20579;-82
2024/03/11 09:47:57;;;;;;;1.38;0.70;;;18.70;67.00;;;;;;4986489;28;20154;-82
2024/03/11 09:50:26;;;;;;;0.90;0.90;;;18.80;67.20;;;;;;4970134;28;20953;-82
2024/03/11 09:53:12;;;;;;;0.90;0.90;;;18.80;67.00;;;;;;4985779;28;20035;-84
2024/03/11 09:55:39;;;;;;;0.85;0.85;;;18.80;66.90;;;;;;4985715;28;20061;-82
2024/03/11 09:58:06;;;;;;;0.73;0.73;;;18.90;66.50;;;;;;4968982;28;20130;-82
2024/03/11 10:00:32;;;;;;;1.00;1.00;;;19.00;66.40;;;;;;4986408;28;20037;-82
2024/03/11 10:03:00;;;;;;;0.70;0.70;;;19.00;66.30;;;;;;4988805;28;20530;-82
2024/03/11 10:05:32;;;;;;;1.15;0.60;;;19.00;66.40;;;;;;4990245;28;20042;-80
2024/03/11 10:08:01;;;;;;;1.60;0.77;;;19.00;66.40;;;;;;4989680;28;20034;-82
2024/03/11 10:10:30;;;;;;;1.42;0.70;;;19.00;66.40;;;;;;4971985;28;20031;-81
2024/03/11 10:12:58;;;;;;;1.10;0.80;;;19.10;66.20;;;;;;5004662;28;20034;-82
2024/03/11 10:15:32;;;;;;;1.05;0.75;;;19.10;66.00;;;;;;4987957;28;20050;-82
2024/03/11 10:18:06;;;;;;;1.05;0.80;;;19.10;65.90;;;;;;4967725;28;20031;-83
2024/03/11 10:20:34;;;;;;;1.52;1.15;;;19.10;66.00;;;;;;4990154;28;20039;-82
2024/03/11 10:23:06;;;;;;;1.30;1.20;;;19.10;66.90;;;;;;4972961;28;20037;-80
2024/03/11 10:25:34;;;;;;;3.50;1.40;;;19.10;67.20;;;;;;4988433;28;20309;-80
2024/03/11 10:28:03;;;;;;;1.50;1.10;;;19.10;67.50;;;;;;4969628;28;20042;-81
2024/03/11 10:30:31;;;;;;;1.30;1.20;;;19.10;67.60;;;;;;5004682;28;20041;-85
2024/03/11 10:32:57;;;;;;;29.63;18.65;;;19.20;67.20;;;;;;4990585;28;20050;-83
2024/03/11 10:35:26;;;;;;;18.20;12.38;;;19.20;67.50;;;;;;4991408;28;20112;-81
2024/03/11 10:37:54;;;;;;;49.78;33.97;;;19.20;67.50;;;;;;4962667;28;20524;-80
2024/03/11 10:40:27;;;;;;;39.40;23.85;;;19.30;67.30;;;;;;4987407;28;20061;-81
2024/03/11 10:42:53;;;;;;;29.00;20.75;;;19.30;66.60;;;;;;4970271;28;20104;-80
2024/03/11 10:45:33;;;;;;;19.02;14.30;;;19.30;66.70;;;;;;4988223;28;20034;-80
2024/03/11 10:48:00;;;;;;;15.18;11.98;;;19.40;66.20;;;;;;4971101;28;20070;-80
2024/03/11 10:50:35;;;;;;;15.45;9.30;;;19.40;66.10;;;;;;4988018;28;20035;-79
2024/03/11 10:53:04;;;;;;;8.32;7.53;;;19.50;65.70;;;;;;4988035;28;20043;-80
2024/03/11 10:55:32;;;;;;;9.32;7.20;;;19.50;65.70;;;;;;4986890;28;20134;-80
2024/03/11 10:58:01;;;;;;;7.72;7.03;;;19.50;65.30;;;;;;4971684;28;20688;-80
2024/03/11 11:00:33;;;;;;;7.22;6.55;;;19.60;65.30;;;;;;5003480;28;20039;-80
2024/03/11 11:03:12;;;;;;;8.32;6.43;;;19.60;65.40;;;;;;5002018;28;20615;-82
2024/03/11 11:05:52;;;;;;;6.13;5.47;;;19.60;65.00;;;;;;4986188;28;20046;-81
2024/03/11 11:08:29;;;;;;;5.93;5.43;;;19.70;65.90;;;;;;4970012;28;20046;-81
2024/03/11 11:10:57;;;;;;;5.47;5.07;;;19.60;65.00;;;;;;4971659;28;20061;-80
2024/03/11 11:13:26;;;;;;;5.82;5.32;;;19.60;65.50;;;;;;4985748;28;20511;-80
2024/03/11 11:15:54;;;;;;;5.90;5.40;;;19.60;66.40;;;;;;4986046;28;20066;-80
2024/03/11 11:18:24;;;;;;;7.43;5.28;;;19.60;66.50;;;;;;4988461;28;20471;-80
2024/03/11 11:20:49;;;;;;;4.25;3.92;;;19.60;66.10;;;;;;4983454;28;20038;-80
2024/03/11 11:23:26;;;;;;;4.82;4.40;;;19.70;65.70;;;;;;4985439;28;20405;-80
2024/03/11 11:25:55;;;;;;;3.58;3.33;;;19.70;65.50;;;;;;4993146;28;20066;-81
2024/03/11 11:28:30;;;;;;;3.80;3.50;;;19.70;65.30;;;;;;4988737;28;20575;-80
2024/03/11 11:31:11;;;;;;;3.85;3.55;;;19.80;65.30;;;;;;4990182;28;20054;-80
2024/03/11 11:33:59;;;;;;;4.00;3.70;;;19.80;65.20;;;;;;4986903;28;20077;-80
2024/03/11 11:36:36;;;;;;;3.83;3.53;;;19.80;65.10;;;;;;4985969;28;20042;-80
2024/03/11 11:39:17;;;;;;;5.35;3.92;;;19.80;65.10;;;;;;4988290;28;20046;-80
2024/03/11 11:41:49;;;;;;;3.70;3.40;;;19.80;65.00;;;;;;4988442;28;20587;-80
2024/03/11 11:44:27;;;;;;;2.95;2.75;;;19.80;64.90;;;;;;4985329;28;20042;-80
2024/03/11 11:47:03;;;;;;;3.72;3.50;;;19.80;64.90;;;;;;4989038;28;20041;-80
2024/03/11 11:49:31;;;;;;;3.78;3.47;;;19.80;64.90;;;;;;4987707;28;20504;-80
2024/03/11 11:51:58;;;;;;;3.08;2.88;;;19.80;64.80;;;;;;4969301;28;20042;-80
2024/03/11 11:54:25;;;;;;;3.00;2.80;;;19.80;64.70;;;;;;4989165;28;20046;-80
2024/03/11 11:57:15;;;;;;;3.78;3.47;;;19.80;64.80;;;;;;4988371;28;20050;-80
2024/03/11 11:59:43;;;;;;;3.17;2.97;;;19.80;64.80;;;;;;4988580;28;20046;-80
2024/03/11 12:02:21;;;;;;;2.97;2.78;;;19.80;64.80;;;;;;4970424;28;20046;-80
2024/03/11 12:04:57;;;;;;;3.55;3.25;;;19.80;64.70;;;;;;4998819;28;20079;-80
2024/03/11 12:07:23;;;;;;;3.50;3.20;;;19.80;64.80;;;;;;4987896;28;20091;-80
2024/03/11 12:09:56;;;;;;;3.67;3.03;;;19.80;64.80;;;;;;4990085;28;20504;-80
2024/03/11 12:12:32;;;;;;;2.80;2.60;;;19.80;64.70;;;;;;4986826;28;20037;-80
2024/03/11 12:14:59;;;;;;;3.08;2.33;;;19.80;64.80;;;;;;4988007;28;20126;-80
2024/03/11 12:17:25;;;;;;;2.38;2.28;;;19.70;64.20;;;;;;4988041;28;20042;-80
2024/03/11 12:22:41;;;;;;;2.13;2.03;;;19.70;65.00;;;;;;4984074;28;20031;-79
2024/03/11 12:25:08;;;;;;;2.17;2.08;;;19.70;64.90;;;;;;4985061;28;20698;-82
2024/03/11 12:27:34;;;;;;;2.55;2.45;;;19.70;65.10;;;;;;5004363;28;20101;-84
2024/03/11 12:30:04;;;;;;;5.28;4.32;;;19.70;64.70;;;;;;4988237;28;20074;-82
2024/03/11 12:32:30;;;;;;;6.50;5.65;;;19.70;64.90;;;;;;4968989;28;20050;-82
2024/03/11 12:34:58;;;;;;;5.90;5.30;;;19.70;65.50;;;;;;4984383;28;20530;-82
2024/03/11 12:37:23;;;;;;;7.18;4.60;;;19.70;65.70;;;;;;4954390;28;20478;-82
2024/03/11 12:39:49;;;;;;;4.93;3.30;;;19.70;65.40;;;;;;4968861;28;20042;-82
2024/03/11 12:42:27;;;;;;;4.90;3.25;;;19.70;65.70;;;;;;4969595;28;20066;-82
2024/03/11 12:44:57;;;;;;;4.85;3.45;;;19.80;65.50;;;;;;4985740;28;20404;-82
2024/03/11 12:47:23;;;;;;;3.50;3.20;;;19.80;65.60;;;;;;4988248;28;20565;-81
2024/03/11 12:49:49;;;;;;;3.08;2.78;;;19.70;65.30;;;;;;4986591;28;20031;-80
2024/03/11 12:52:15;;;;;;;3.22;3.03;;;19.70;65.30;;;;;;4967902;28;20064;-79